Time;durP1;ratioP1;P1;durP2;ratioP2;P2;SDS_P1;SDS_P2;PMS_P1;PMS_P2;Temp;Humidity;BMP_temperature;BMP_pressure;BME280_temperature;BME280_humidity;BME280_pressure;Samples;Min_cycle;Max_cycle;Signal;HPM_P1;HPM_P2
2022/10/20 00:01:37;;;;;;;10.40;5.15;;;;;;;;;;5046764;28;20023;-86
2022/10/20 00:04:02;;;;;;;16.20;6.13;;;;;;;;;;5046496;28;20037;-87
2022/10/20 00:06:29;;;;;;;13.23;5.05;;;;;;;;;;5046462;28;20024;-85
2022/10/20 00:08:55;;;;;;;15.57;6.70;;;;;;;;;;5031341;28;20104;-86
2022/10/20 00:11:21;;;;;;;14.98;4.20;;;;;;;;;;5030379;28;20025;-86
2022/10/20 00:13:47;;;;;;;7.88;4.40;;;;;;;;;;5030352;28;20496;-86
2022/10/20 00:16:13;;;;;;;11.32;4.28;;;;;;;;;;5028801;28;20036;-86
2022/10/20 00:18:38;;;;;;;9.73;4.65;;;;;;;;;;5031062;28;20029;-86
2022/10/20 00:21:09;;;;;;;9.27;4.95;;;;;;;;;;5029528;28;20449;-87
2022/10/20 00:23:35;;;;;;;9.38;4.55;;;;;;;;;;5030722;28;20021;-87
2022/10/20 00:26:05;;;;;;;12.85;5.60;;;;;;;;;;5029168;28;20385;-86
2022/10/20 00:28:30;;;;;;;10.48;4.35;;;;;;;;;;5030544;28;20017;-87
2022/10/20 00:30:55;;;;;;;15.18;5.88;;;;;;;;;;5045018;28;20022;-87
2022/10/20 00:33:21;;;;;;;9.43;4.93;;;;;;;;;;5029502;28;20030;-87
2022/10/20 00:35:46;;;;;;;10.45;5.82;;;;;;;;;;5029610;28;20100;-86
2022/10/20 00:38:11;;;;;;;6.18;2.95;;;;;;;;;;5030597;28;20100;-86
2022/10/20 00:40:36;;;;;;;7.75;3.70;;;;;;;;;;5030839;28;20496;-85
2022/10/20 00:43:02;;;;;;;17.67;4.72;;;;;;;;;;5029902;28;20033;-86
2022/10/20 00:45:28;;;;;;;12.02;5.20;;;;;;;;;;5042665;28;20021;-87
2022/10/20 00:47:55;;;;;;;14.88;4.32;;;;;;;;;;5045739;28;20025;-88
2022/10/20 00:50:23;;;;;;;17.33;5.25;;;;;;;;;;5028099;28;20101;-86
2022/10/20 00:52:49;;;;;;;15.98;4.97;;;;;;;;;;5029320;28;20547;-88
2022/10/20 00:55:18;;;;;;;8.95;4.28;;;;;;;;;;5027818;28;20018;-86
2022/10/20 00:57:45;;;;;;;8.50;3.92;;;;;;;;;;5028332;28;20117;-86
2022/10/20 01:00:10;;;;;;;9.38;3.25;;;;;;;;;;5027969;28;20091;-86
2022/10/20 01:02:36;;;;;;;13.93;5.45;;;;;;;;;;5029875;28;20021;-87
2022/10/20 01:05:01;;;;;;;11.27;6.03;;;;;;;;;;5028403;28;20028;-87
2022/10/20 01:07:27;;;;;;;7.40;4.07;;;;;;;;;;5028128;28;20033;-89
2022/10/20 01:09:52;;;;;;;9.82;3.55;;;;;;;;;;5025859;28;20022;-85
2022/10/20 01:12:36;;;;;;;12.70;5.50;;;;;;;;;;5028878;28;20037;-87
2022/10/20 01:15:07;;;;;;;9.57;5.10;;;;;;;;;;5023831;28;20102;-89
2022/10/20 01:17:39;;;;;;;9.18;3.78;;;;;;;;;;5026943;28;20033;-85
2022/10/20 01:20:23;;;;;;;16.95;6.22;;;;;;;;;;5044131;28;20029;-87
2022/10/20 01:22:48;;;;;;;15.18;5.32;;;;;;;;;;5021736;28;20112;-88
2022/10/20 01:25:22;;;;;;;6.70;3.58;;;;;;;;;;5028510;28;20104;-87
2022/10/20 01:27:51;;;;;;;9.60;4.97;;;;;;;;;;5028930;28;20021;-87
2022/10/20 01:30:21;;;;;;;11.87;3.67;;;;;;;;;;5044319;28;20017;-89
2022/10/20 01:32:59;;;;;;;7.40;3.87;;;;;;;;;;5021162;28;20051;-87
2022/10/20 01:35:41;;;;;;;13.65;5.53;;;;;;;;;;5028281;28;20295;-86
2022/10/20 01:38:15;;;;;;;20.05;5.28;;;;;;;;;;5029329;28;20397;-87
2022/10/20 01:40:46;;;;;;;16.35;6.40;;;;;;;;;;5026675;28;20029;-87
2022/10/20 01:43:12;;;;;;;13.48;6.75;;;;;;;;;;5028260;28;20053;-86
2022/10/20 01:45:40;;;;;;;15.27;5.78;;;;;;;;;;5028413;28;20017;-86
2022/10/20 01:48:06;;;;;;;10.27;5.68;;;;;;;;;;5027147;28;20053;-86
2022/10/20 01:50:35;;;;;;;11.43;3.90;;;;;;;;;;5026661;28;20629;-88
2022/10/20 01:53:01;;;;;;;14.30;4.85;;;;;;;;;;5028296;28;20018;-86
2022/10/20 01:55:26;;;;;;;15.40;6.63;;;;;;;;;;5026996;28;20022;-88
2022/10/20 01:58:11;;;;;;;12.00;5.72;;;;;;;;;;5026973;28;20025;-85
2022/10/20 02:00:37;;;;;;;9.48;5.15;;;;;;;;;;5038366;28;20481;-86
2022/10/20 02:03:15;;;;;;;12.10;4.53;;;;;;;;;;5030415;28;20103;-86
2022/10/20 02:05:46;;;;;;;18.25;5.43;;;;;;;;;;5025309;28;20053;-86
2022/10/20 02:08:20;;;;;;;11.55;5.63;;;;;;;;;;5027524;28;20026;-88
2022/10/20 02:10:46;;;;;;;11.40;5.22;;;;;;;;;;5026393;28;20013;-86
2022/10/20 02:13:12;;;;;;;10.80;5.78;;;;;;;;;;5026847;28;20029;-87
2022/10/20 02:15:39;;;;;;;14.80;5.70;;;;;;;;;;5027869;28;20032;-88
2022/10/20 02:18:07;;;;;;;7.05;3.40;;;;;;;;;;5028265;28;20009;-88
2022/10/20 02:20:32;;;;;;;10.77;2.67;;;;;;;;;;5027104;28;20107;-86
2022/10/20 02:22:59;;;;;;;10.85;4.68;;;;;;;;;;5033007;28;20018;-87
2022/10/20 02:25:25;;;;;;;5.15;3.05;;;;;;;;;;5024255;28;20089;-88
2022/10/20 02:27:50;;;;;;;13.15;5.40;;;;;;;;;;5027638;28;20025;-85
2022/10/20 02:30:16;;;;;;;14.02;4.97;;;;;;;;;;5026316;28;20619;-88
2022/10/20 02:32:43;;;;;;;9.07;4.88;;;;;;;;;;5026657;28;20025;-87
2022/10/20 02:35:13;;;;;;;10.02;3.80;;;;;;;;;;5025291;28;20045;-87
2022/10/20 02:37:38;;;;;;;12.38;4.43;;;;;;;;;;5024395;28;20025;-87
2022/10/20 02:40:04;;;;;;;11.90;6.57;;;;;;;;;;5025534;28;20045;-86
2022/10/20 02:42:29;;;;;;;5.63;3.85;;;;;;;;;;5023151;28;20037;-85
2022/10/20 02:44:54;;;;;;;12.02;5.60;;;;;;;;;;5021314;28;20028;-86
2022/10/20 02:47:21;;;;;;;9.25;5.07;;;;;;;;;;5028706;28;20024;-86
2022/10/20 02:49:47;;;;;;;6.95;3.60;;;;;;;;;;5016157;28;20244;-87
2022/10/20 02:52:12;;;;;;;7.07;3.53;;;;;;;;;;5024138;28;20060;-87
2022/10/20 02:54:37;;;;;;;9.00;4.27;;;;;;;;;;5022653;28;20032;-86
2022/10/20 02:57:02;;;;;;;19.05;7.10;;;;;;;;;;5035862;28;20267;-89
2022/10/20 02:59:27;;;;;;;18.42;5.82;;;;;;;;;;5026095;28;20045;-87
2022/10/20 03:01:53;;;;;;;6.55;3.00;;;;;;;;;;5027912;28;20100;-88
2022/10/20 03:04:18;;;;;;;20.05;7.28;;;;;;;;;;5026790;28;20098;-87
2022/10/20 03:06:43;;;;;;;20.38;7.43;;;;;;;;;;5020177;28;20078;-86
2022/10/20 03:09:32;;;;;;;13.30;6.68;;;;;;;;;;5023841;28;20521;-86
2022/10/20 03:12:07;;;;;;;15.70;6.43;;;;;;;;;;5036485;28;20052;-86
2022/10/20 03:14:48;;;;;;;;;;;;;;;;;;;;;
2022/10/20 03:17:14;;;;;;;12.82;5.47;;;;;;;;;;5025501;28;20115;-86
2022/10/20 03:19:40;;;;;;;5.68;4.00;;;;;;;;;;5023499;28;20025;-87
2022/10/20 03:22:05;;;;;;;8.27;3.58;;;;;;;;;;5023951;28;20028;-85
2022/10/20 03:24:34;;;;;;;8.02;3.83;;;;;;;;;;5020009;28;20029;-87
2022/10/20 03:27:05;;;;;;;8.52;4.30;;;;;;;;;;5026489;28;20021;-88
2022/10/20 03:29:30;;;;;;;7.00;4.07;;;;;;;;;;5016534;28;20164;-87
2022/10/20 03:31:55;;;;;;;8.25;4.35;;;;;;;;;;5027026;28;20568;-88
2022/10/20 03:34:21;;;;;;;43.65;5.22;;;;;;;;;;5027116;28;20025;-88
2022/10/20 03:36:46;;;;;;;11.23;5.35;;;;;;;;;;5018579;28;20030;-88
2022/10/20 03:39:11;;;;;;;9.50;3.35;;;;;;;;;;5022892;28;20033;-86
2022/10/20 03:41:36;;;;;;;5.30;2.83;;;;;;;;;;5041954;28;20038;-87
2022/10/20 03:44:02;;;;;;;14.00;5.43;;;;;;;;;;5025994;28;20315;-86
2022/10/20 03:46:27;;;;;;;12.52;5.15;;;;;;;;;;5024438;28;20064;-84
2022/10/20 03:48:52;;;;;;;8.52;4.22;;;;;;;;;;5024167;28;20026;-86
2022/10/20 03:51:17;;;;;;;11.53;3.97;;;;;;;;;;5027193;28;20026;-87
2022/10/20 03:53:43;;;;;;;14.68;6.40;;;;;;;;;;5021387;28;20287;-87
2022/10/20 03:56:09;;;;;;;5.97;2.85;;;;;;;;;;5027411;28;20025;-87
2022/10/20 04:01:30;;;;;;;8.27;4.50;;;;;;;;;;5026063;28;20052;-87
2022/10/20 04:03:56;;;;;;;7.28;3.80;;;;;;;;;;5023069;28;20033;-87
2022/10/20 04:06:21;;;;;;;10.75;3.33;;;;;;;;;;5029855;28;20039;-88
2022/10/20 04:08:46;;;;;;;12.45;7.20;;;;;;;;;;5022931;28;20109;-88
2022/10/20 04:11:12;;;;;;;9.73;3.53;;;;;;;;;;5030729;28;20021;-88
2022/10/20 04:13:37;;;;;;;14.35;5.82;;;;;;;;;;5045802;28;20017;-85
2022/10/20 04:16:02;;;;;;;6.57;4.28;;;;;;;;;;5024506;28;20040;-86
2022/10/20 04:18:27;;;;;;;11.85;4.88;;;;;;;;;;5025340;28;20022;-87
2022/10/20 04:20:59;;;;;;;13.32;5.00;;;;;;;;;;5025761;28;20037;-86
2022/10/20 04:23:29;;;;;;;8.60;4.03;;;;;;;;;;5024991;28;20326;-87
2022/10/20 04:26:10;;;;;;;5.93;3.15;;;;;;;;;;5022635;28;20033;-87
2022/10/20 04:28:35;;;;;;;8.38;3.72;;;;;;;;;;5026959;28;20025;-86
2022/10/20 04:31:18;;;;;;;8.02;4.63;;;;;;;;;;5027591;28;20071;-88
2022/10/20 04:33:43;;;;;;;14.23;5.68;;;;;;;;;;5030475;28;20025;-87
2022/10/20 04:36:09;;;;;;;6.88;4.10;;;;;;;;;;5028149;28;20021;-89
2022/10/20 04:38:35;;;;;;;8.50;3.08;;;;;;;;;;5029191;28;20044;-88
2022/10/20 04:41:09;;;;;;;12.43;4.60;;;;;;;;;;5028953;28;20092;-86
2022/10/20 04:43:35;;;;;;;5.90;3.30;;;;;;;;;;5030456;28;20107;-89
2022/10/20 04:46:03;;;;;;;8.48;4.13;;;;;;;;;;5031847;28;20066;-88
2022/10/20 04:48:32;;;;;;;13.48;4.75;;;;;;;;;;5028388;28;20469;-88
2022/10/20 04:51:20;;;;;;;4.00;2.88;;;;;;;;;;5030061;28;20025;-87
2022/10/20 04:54:08;;;;;;;12.02;5.05;;;;;;;;;;5025084;28;20281;-88
2022/10/20 04:56:36;;;;;;;10.65;4.10;;;;;;;;;;5024236;28;20072;-88
2022/10/20 04:59:08;;;;;;;25.38;4.35;;;;;;;;;;5033440;28;20194;-86
2022/10/20 05:01:33;;;;;;;8.38;5.07;;;;;;;;;;5039849;28;20040;-88
2022/10/20 05:03:58;;;;;;;6.13;2.88;;;;;;;;;;5011411;22;20043;-66
2022/10/20 05:06:25;;;;;;;13.37;4.93;;;;;;;;;;4962119;28;20121;-66
2022/10/20 05:08:51;;;;;;;11.88;5.57;;;;;;;;;;4969106;28;20365;-66
2022/10/20 05:11:17;;;;;;;11.38;5.25;;;;;;;;;;4973325;28;20393;-66
2022/10/20 05:13:42;;;;;;;12.00;5.18;;;;;;;;;;4973817;28;20033;-66
2022/10/20 05:16:08;;;;;;;8.73;4.97;;;;;;;;;;4971184;28;20031;-65
2022/10/20 05:18:33;;;;;;;12.90;4.50;;;;;;;;;;4974218;28;20724;-66
2022/10/20 05:20:59;;;;;;;10.35;4.47;;;;;;;;;;4967061;28;20851;-66
2022/10/20 05:23:24;;;;;;;9.90;3.13;;;;;;;;;;4972647;28;20026;-66
2022/10/20 05:25:49;;;;;;;10.50;5.07;;;;;;;;;;4967354;28;20030;-66
2022/10/20 05:28:14;;;;;;;7.25;4.38;;;;;;;;;;4966098;28;20515;-67
2022/10/20 05:30:40;;;;;;;6.27;3.90;;;;;;;;;;4967026;28;20035;-66
2022/10/20 05:33:05;;;;;;;7.35;4.03;;;;;;;;;;4965898;28;20285;-66
2022/10/20 05:35:30;;;;;;;11.23;5.20;;;;;;;;;;4971201;28;20117;-66
2022/10/20 05:37:55;;;;;;;11.73;3.10;;;;;;;;;;4971918;28;20499;-66
2022/10/20 05:40:21;;;;;;;8.05;2.60;;;;;;;;;;4971056;28;20325;-66
2022/10/20 05:42:46;;;;;;;6.40;3.55;;;;;;;;;;4970936;28;20037;-66
2022/10/20 05:45:11;;;;;;;6.77;4.20;;;;;;;;;;4968168;28;20030;-66
2022/10/20 05:47:36;;;;;;;13.47;4.20;;;;;;;;;;4971489;28;20360;-66
2022/10/20 05:50:01;;;;;;;11.50;4.03;;;;;;;;;;4967188;28;20353;-66
2022/10/20 05:52:27;;;;;;;16.70;3.67;;;;;;;;;;4971841;28;20050;-66
2022/10/20 05:54:52;;;;;;;9.87;4.57;;;;;;;;;;4965848;28;20021;-66
2022/10/20 05:57:17;;;;;;;13.17;4.60;;;;;;;;;;4969123;28;20596;-66
2022/10/20 05:59:42;;;;;;;9.50;3.85;;;;;;;;;;4968437;28;20317;-66
2022/10/20 06:02:08;;;;;;;9.23;4.07;;;;;;;;;;4970823;28;20103;-66
2022/10/20 06:04:34;;;;;;;13.18;6.57;;;;;;;;;;4970006;28;20309;-66
2022/10/20 06:06:59;;;;;;;11.10;3.90;;;;;;;;;;4963545;28;20062;-66
2022/10/20 06:09:24;;;;;;;6.83;3.57;;;;;;;;;;4966293;28;20027;-66
2022/10/20 06:11:50;;;;;;;11.15;3.33;;;;;;;;;;4969207;28;20267;-66
2022/10/20 06:14:16;;;;;;;7.88;4.25;;;;;;;;;;4966407;28;20023;-66
2022/10/20 06:16:42;;;;;;;12.13;5.57;;;;;;;;;;4967711;28;20429;-67
2022/10/20 06:19:07;;;;;;;7.03;3.58;;;;;;;;;;4966459;28;20080;-67
2022/10/20 06:21:33;;;;;;;6.47;3.95;;;;;;;;;;4973570;28;20042;-67
2022/10/20 06:23:58;;;;;;;7.10;4.15;;;;;;;;;;4972175;28;20443;-67
2022/10/20 06:26:25;;;;;;;9.93;5.18;;;;;;;;;;4970725;28;20157;-67
2022/10/20 06:28:52;;;;;;;10.27;3.72;;;;;;;;;;4975794;28;20050;-67
2022/10/20 06:31:25;;;;;;;7.88;3.85;;;;;;;;;;4982226;28;20034;-67
2022/10/20 06:33:50;;;;;;;11.73;4.18;;;;;;;;;;4979388;28;20094;-67
2022/10/20 06:36:16;;;;;;;6.33;4.13;;;;;;;;;;4986411;28;20109;-67
2022/10/20 06:38:41;;;;;;;13.35;4.88;;;;;;;;;;4975017;28;20294;-67
2022/10/20 06:41:08;;;;;;;13.35;5.25;;;;;;;;;;4986410;28;20031;-67
2022/10/20 06:43:33;;;;;;;8.95;3.83;;;;;;;;;;4984858;28;20390;-67
2022/10/20 06:46:00;;;;;;;13.27;5.38;;;;;;;;;;4982062;28;20018;-66
2022/10/20 06:48:25;;;;;;;12.45;4.65;;;;;;;;;;4981604;28;20022;-67
2022/10/20 06:50:54;;;;;;;6.13;3.00;;;;;;;;;;4987971;28;20018;-67
2022/10/20 06:53:19;;;;;;;12.02;4.72;;;;;;;;;;4986465;28;20328;-67
2022/10/20 06:55:53;;;;;;;7.55;3.97;;;;;;;;;;4975959;28;20026;-67
2022/10/20 06:58:18;;;;;;;8.43;4.32;;;;;;;;;;4984518;28;20085;-67
2022/10/20 07:00:43;;;;;;;18.53;8.07;;;;;;;;;;4982308;28;20023;-66
2022/10/20 07:03:09;;;;;;;12.13;5.27;;;;;;;;;;4984670;28;20381;-67
2022/10/20 07:05:34;;;;;;;11.88;5.18;;;;;;;;;;4985050;28;20274;-66
2022/10/20 07:08:00;;;;;;;9.20;3.92;;;;;;;;;;4976503;28;20031;-67
2022/10/20 07:10:25;;;;;;;8.73;4.93;;;;;;;;;;4970691;28;20054;-67
2022/10/20 07:12:50;;;;;;;6.27;3.27;;;;;;;;;;4968963;28;20651;-66
2022/10/20 07:15:15;;;;;;;5.67;3.97;;;;;;;;;;4970977;28;20250;-66
2022/10/20 07:17:40;;;;;;;10.05;6.60;;;;;;;;;;4971223;28;20595;-66
2022/10/20 07:20:06;;;;;;;7.13;3.07;;;;;;;;;;4971480;28;20526;-66
2022/10/20 07:22:32;;;;;;;10.75;4.47;;;;;;;;;;4971110;28;20270;-66
2022/10/20 07:24:58;;;;;;;9.52;5.35;;;;;;;;;;4970403;28;20065;-67
2022/10/20 07:27:23;;;;;;;12.68;5.22;;;;;;;;;;4970981;28;20029;-66
2022/10/20 07:29:48;;;;;;;8.30;5.07;;;;;;;;;;4970571;28;20094;-67
2022/10/20 07:32:13;;;;;;;9.40;4.27;;;;;;;;;;4971198;28;20743;-67
2022/10/20 07:34:39;;;;;;;5.03;3.30;;;;;;;;;;4971008;28;20259;-67
2022/10/20 07:37:04;;;;;;;3.53;2.60;;;;;;;;;;4971551;28;20077;-66
2022/10/20 07:39:29;;;;;;;6.73;3.37;;;;;;;;;;4971244;28;20254;-66
2022/10/20 07:41:54;;;;;;;11.68;5.47;;;;;;;;;;4970800;28;20398;-67
2022/10/20 07:44:20;;;;;;;13.05;5.40;;;;;;;;;;4976729;28;20202;-67
2022/10/20 07:46:45;;;;;;;10.80;5.07;;;;;;;;;;4973591;28;20053;-66
2022/10/20 07:49:10;;;;;;;15.57;4.75;;;;;;;;;;4982363;28;20030;-67
2022/10/20 07:51:36;;;;;;;10.00;3.30;;;;;;;;;;4982888;28;20028;-67
2022/10/20 07:54:03;;;;;;;11.98;5.78;;;;;;;;;;4987141;28;20026;-67
2022/10/20 07:56:32;;;;;;;13.45;6.75;;;;;;;;;;4978523;28;20439;-68
2022/10/20 07:58:58;;;;;;;11.25;5.00;;;;;;;;;;4988425;28;20424;-67
2022/10/20 08:01:23;;;;;;;11.80;4.60;;;;;;;;;;4989013;28;20061;-67
2022/10/20 08:03:49;;;;;;;14.52;3.95;;;;;;;;;;4984819;28;20037;-67
2022/10/20 08:06:14;;;;;;;14.63;4.13;;;;;;;;;;4986520;28;20065;-65
2022/10/20 08:08:39;;;;;;;13.88;5.50;;;;;;;;;;4977578;28;20852;-67
2022/10/20 08:11:04;;;;;;;8.23;4.30;;;;;;;;;;4987148;28;20351;-67
2022/10/20 08:13:29;;;;;;;6.07;2.80;;;;;;;;;;4986308;28;20023;-67
2022/10/20 08:15:55;;;;;;;6.50;3.23;;;;;;;;;;4989841;28;20018;-66
2022/10/20 08:18:20;;;;;;;10.07;4.97;;;;;;;;;;4983886;28;20285;-66
2022/10/20 08:20:45;;;;;;;10.45;4.60;;;;;;;;;;4977779;28;20050;-67
2022/10/20 08:23:11;;;;;;;6.85;4.18;;;;;;;;;;4985307;28;20052;-66
2022/10/20 08:25:36;;;;;;;13.00;4.68;;;;;;;;;;4984223;28;20026;-67
2022/10/20 08:28:02;;;;;;;11.50;4.05;;;;;;;;;;4977694;28;20181;-66
2022/10/20 08:30:27;;;;;;;18.95;5.28;;;;;;;;;;4987547;28;20466;-67
2022/10/20 08:32:52;;;;;;;13.10;5.38;;;;;;;;;;4976978;28;20026;-66
2022/10/20 08:35:18;;;;;;;7.88;4.35;;;;;;;;;;4978822;28;20055;-67
2022/10/20 08:37:43;;;;;;;12.40;4.32;;;;;;;;;;4979449;28;20022;-68
2022/10/20 08:40:11;;;;;;;9.20;5.03;;;;;;;;;;4982433;28;20034;-67
2022/10/20 08:42:38;;;;;;;6.35;3.83;;;;;;;;;;4981698;28;20049;-67
2022/10/20 08:45:03;;;;;;;11.40;4.63;;;;;;;;;;4989757;28;20031;-67
2022/10/20 08:47:31;;;;;;;21.73;4.53;;;;;;;;;;4980475;28;20030;-67
2022/10/20 08:49:57;;;;;;;13.43;4.85;;;;;;;;;;4981836;28;20021;-68
2022/10/20 08:52:23;;;;;;;16.60;5.03;;;;;;;;;;4985836;28;20113;-67
2022/10/20 08:54:50;;;;;;;8.00;4.07;;;;;;;;;;4982852;28;20026;-67
2022/10/20 08:57:26;;;;;;;14.45;3.65;;;;;;;;;;4982720;28;20134;-67
2022/10/20 08:59:52;;;;;;;11.75;3.78;;;;;;;;;;4977513;28;20030;-67
2022/10/20 09:02:17;;;;;;;14.05;6.05;;;;;;;;;;4981402;28;20023;-66
2022/10/20 09:04:54;;;;;;;12.10;4.10;;;;;;;;;;4982555;28;20049;-67
2022/10/20 09:07:19;;;;;;;12.18;5.70;;;;;;;;;;4984975;28;20309;-70
2022/10/20 09:09:45;;;;;;;13.05;5.28;;;;;;;;;;4982817;28;20376;-66
2022/10/20 09:12:12;;;;;;;10.18;3.90;;;;;;;;;;4985765;28;20030;-67
2022/10/20 09:14:37;;;;;;;13.73;6.63;;;;;;;;;;4984305;28;20018;-69
2022/10/20 09:17:03;;;;;;;10.52;5.90;;;;;;;;;;4980091;28;20034;-68
2022/10/20 09:19:29;;;;;;;9.40;4.50;;;;;;;;;;4982690;28;20034;-69
2022/10/20 09:22:03;;;;;;;10.07;4.63;;;;;;;;;;4982159;28;20114;-68
2022/10/20 09:24:29;;;;;;;10.68;5.93;;;;;;;;;;4984279;28;20030;-67
2022/10/20 09:26:54;;;;;;;11.45;5.25;;;;;;;;;;4979246;28;20046;-69
2022/10/20 09:29:21;;;;;;;6.70;3.72;;;;;;;;;;4985172;28;20510;-68
2022/10/20 09:31:48;;;;;;;6.80;4.03;;;;;;;;;;4979560;28;20478;-67
2022/10/20 09:34:19;;;;;;;23.00;5.18;;;;;;;;;;4981209;28;20376;-67
2022/10/20 09:36:45;;;;;;;12.98;5.45;;;;;;;;;;4977332;28;20030;-67
2022/10/20 09:39:18;;;;;;;9.68;5.28;;;;;;;;;;4985136;28;20101;-67
2022/10/20 09:41:44;;;;;;;11.68;6.70;;;;;;;;;;4980902;28;20449;-68
2022/10/20 09:44:13;;;;;;;7.97;4.63;;;;;;;;;;4980630;28;20014;-67
2022/10/20 09:46:44;;;;;;;11.48;5.85;;;;;;;;;;4981904;28;20058;-67
2022/10/20 09:49:09;;;;;;;;;;;;;;;;;;4984775;28;20038;-67
2022/10/20 09:51:34;;;;;;;9.07;4.15;;;;;;;;;;4977893;28;19910;-68
2022/10/20 09:54:01;;;;;;;11.25;5.60;;;;;;;;;;4981694;28;20026;-67
2022/10/20 09:56:31;;;;;;;9.75;5.28;;;;;;;;;;4977144;28;20034;-68
2022/10/20 09:58:57;;;;;;;7.15;4.53;;;;;;;;;;4976824;28;20065;-68
2022/10/20 10:01:22;;;;;;;11.38;5.85;;;;;;;;;;4977056;28;20050;-68
2022/10/20 10:03:48;;;;;;;9.05;5.45;;;;;;;;;;4977718;28;20031;-67
2022/10/20 10:06:32;;;;;;;10.85;5.78;;;;;;;;;;4977610;28;20038;-67
2022/10/20 10:08:58;;;;;;;13.52;4.30;;;;;;;;;;4979123;28;20023;-67
2022/10/20 10:11:34;;;;;;;14.95;6.32;;;;;;;;;;4979803;28;20027;-67
2022/10/20 10:14:00;;;;;;;19.05;7.75;;;;;;;;;;4977852;28;20120;-69
2022/10/20 10:16:26;;;;;;;7.95;3.90;;;;;;;;;;4978303;28;20035;-69
2022/10/20 10:19:01;;;;;;;9.20;4.85;;;;;;;;;;4979694;28;20030;-69
2022/10/20 10:21:27;;;;;;;14.93;7.50;;;;;;;;;;4974290;28;20155;-69
2022/10/20 10:23:57;;;;;;;12.77;6.47;;;;;;;;;;4982045;28;20053;-68
2022/10/20 10:26:42;;;;;;;15.05;6.45;;;;;;;;;;4986575;28;20027;-69
2022/10/20 10:29:17;;;;;;;21.30;8.40;;;;;;;;;;4978938;28;20037;-68
2022/10/20 10:34:10;;;;;;;16.50;6.25;;;;;;;;;;4998928;28;20058;-68
2022/10/20 10:36:36;;;;;;;16.55;7.95;;;;;;;;;;4977100;28;20053;-68
2022/10/20 10:39:03;;;;;;;18.73;7.80;;;;;;;;;;4981229;28;20026;-69
2022/10/20 10:41:46;;;;;;;17.92;7.15;;;;;;;;;;4981064;28;20062;-69
2022/10/20 10:44:11;;;;;;;10.63;6.28;;;;;;;;;;4978249;28;20030;-67
2022/10/20 10:46:51;;;;;;;16.27;7.03;;;;;;;;;;4981835;28;20026;-68
2022/10/20 10:49:28;;;;;;;13.30;6.30;;;;;;;;;;4976159;28;20361;-68
2022/10/20 10:52:05;;;;;;;20.05;8.15;;;;;;;;;;4980023;28;20018;-68
2022/10/20 10:54:30;;;;;;;13.05;6.35;;;;;;;;;;4981410;28;20022;-68
2022/10/20 10:56:59;;;;;;;12.52;5.85;;;;;;;;;;4980257;28;20073;-67
2022/10/20 10:59:31;;;;;;;14.75;9.13;;;;;;;;;;4977618;28;20037;-67
2022/10/20 11:02:15;;;;;;;17.02;5.32;;;;;;;;;;4979319;28;20099;-68
2022/10/20 11:05:03;;;;;;;17.77;8.63;;;;;;;;;;4971302;28;20034;-67
2022/10/20 11:07:28;;;;;;;13.93;7.50;;;;;;;;;;4970352;28;20023;-68
2022/10/20 11:10:12;;;;;;;18.37;8.30;;;;;;;;;;4974865;28;20073;-67
2022/10/20 11:12:49;;;;;;;13.68;7.25;;;;;;;;;;4974763;28;20281;-68
2022/10/20 11:15:14;;;;;;;17.08;7.00;;;;;;;;;;4973704;28;20022;-68
2022/10/20 11:17:39;;;;;;;11.67;5.13;;;;;;;;;;4979654;28;20038;-68
2022/10/20 11:20:26;;;;;;;11.00;4.43;;;;;;;;;;4980658;28;21907;-70
2022/10/20 11:23:06;;;;;;;23.83;10.27;;;;;;;;;;4975982;28;20412;-70
2022/10/20 11:25:31;;;;;;;;;;;;;;;;;;4981132;28;20053;-70
2022/10/20 11:27:57;;;;;;;17.40;8.15;;;;;;;;;;4982909;28;20008;-69
2022/10/20 11:30:26;;;;;;;17.60;7.95;;;;;;;;;;4985949;28;20137;-69
2022/10/20 11:33:11;;;;;;;13.45;7.22;;;;;;;;;;4978145;28;20391;-68
2022/10/20 11:35:46;;;;;;;17.02;8.20;;;;;;;;;;4983001;28;20194;-70
2022/10/20 11:38:22;;;;;;;20.42;6.68;;;;;;;;;;4985839;28;20084;-70
2022/10/20 11:41:08;;;;;;;12.15;5.88;;;;;;;;;;4957301;28;20578;-69
2022/10/20 11:43:38;;;;;;;20.13;6.70;;;;;;;;;;4979155;28;20085;-70
2022/10/20 11:46:03;;;;;;;;;;;;;;;;;;4985305;28;20341;-70
2022/10/20 11:48:28;;;;;;;18.00;7.57;;;;;;;;;;4981959;28;19992;-69
2022/10/20 11:51:05;;;;;;;21.17;10.57;;;;;;;;;;4982662;28;20030;-69
2022/10/20 11:53:54;;;;;;;17.20;9.15;;;;;;;;;;4984858;28;20277;-69
2022/10/20 11:56:27;;;;;;;14.07;6.95;;;;;;;;;;4963751;28;20076;-69
2022/10/20 11:58:52;;;;;;;20.10;6.85;;;;;;;;;;4978805;28;20019;-70
2022/10/20 12:01:35;;;;;;;10.80;5.83;;;;;;;;;;4978613;28;20016;-69
2022/10/20 12:04:06;;;;;;;18.27;8.25;;;;;;;;;;4980491;28;20751;-69
2022/10/20 12:06:49;;;;;;;14.43;8.02;;;;;;;;;;4982684;28;20507;-69
2022/10/20 12:09:20;;;;;;;20.60;6.78;;;;;;;;;;4984346;28;20038;-69
2022/10/20 12:11:59;;;;;;;19.50;7.82;;;;;;;;;;4969301;28;20109;-69
2022/10/20 12:14:29;;;;;;;22.58;8.85;;;;;;;;;;4980273;28;20042;-68
2022/10/20 12:16:54;;;;;;;26.85;13.15;;;;;;;;;;4983037;28;20019;-69
2022/10/20 12:19:45;;;;;;;26.92;12.77;;;;;;;;;;4984323;28;20041;-69
2022/10/20 12:22:13;;;;;;;28.10;7.00;;;;;;;;;;4984029;28;20049;-69
2022/10/20 12:24:39;;;;;;;20.77;10.90;;;;;;;;;;4978364;28;20030;-69
2022/10/20 12:27:05;;;;;;;9.02;6.18;;;;;;;;;;4980215;28;20031;-69
2022/10/20 12:29:30;;;;;;;25.45;11.52;;;;;;;;;;4983087;28;20023;-69
2022/10/20 12:32:13;;;;;;;17.95;10.40;;;;;;;;;;4977648;28;20022;-69
2022/10/20 12:34:40;;;;;;;26.23;11.90;;;;;;;;;;4982404;28;20121;-69
2022/10/20 12:37:25;;;;;;;22.20;11.18;;;;;;;;;;4982783;28;20046;-68
2022/10/20 12:39:55;;;;;;;13.35;6.63;;;;;;;;;;4975374;28;20398;-69
2022/10/20 12:42:27;;;;;;;52.35;11.15;;;;;;;;;;4980170;28;20379;-68
2022/10/20 12:44:52;;;;;;;19.58;9.23;;;;;;;;;;4982563;28;20052;-69
2022/10/20 12:47:27;;;;;;;27.15;13.25;;;;;;;;;;4986543;28;20030;-68
2022/10/20 12:49:59;;;;;;;22.30;8.80;;;;;;;;;;4994632;28;20371;-69
2022/10/20 12:52:29;;;;;;;28.40;13.40;;;;;;;;;;4980529;28;20019;-69
2022/10/20 12:55:16;;;;;;;21.20;10.75;;;;;;;;;;4980331;28;20027;-69
2022/10/20 12:57:43;;;;;;;30.92;9.88;;;;;;;;;;4980689;28;20058;-69
2022/10/20 13:00:18;;;;;;;43.70;11.60;;;;;;;;;;4977119;28;20018;-69
2022/10/20 13:02:44;;;;;;;32.63;11.93;;;;;;;;;;4976167;28;20015;-69
2022/10/20 13:05:12;;;;;;;22.80;11.35;;;;;;;;;;4986598;28;20029;-69
2022/10/20 13:07:51;;;;;;;17.70;9.38;;;;;;;;;;4983731;28;20053;-69
2022/10/20 13:10:25;;;;;;;20.88;11.13;;;;;;;;;;4984333;28;20022;-69
2022/10/20 13:12:51;;;;;;;28.77;13.50;;;;;;;;;;4983111;28;20472;-69
2022/10/20 13:15:18;;;;;;;12.07;7.35;;;;;;;;;;4979296;28;20038;-69
2022/10/20 13:17:51;;;;;;;23.45;11.60;;;;;;;;;;4979613;28;20080;-67
2022/10/20 13:20:35;;;;;;;28.42;14.40;;;;;;;;;;4979634;28;20029;-70
2022/10/20 13:23:01;;;;;;;20.48;9.40;;;;;;;;;;4977032;28;20023;-69
2022/10/20 13:25:32;;;;;;;27.50;10.25;;;;;;;;;;4987268;28;20364;-70
2022/10/20 13:28:02;;;;;;;20.85;10.48;;;;;;;;;;4982004;28;20399;-67
2022/10/20 13:30:27;;;;;;;24.20;10.88;;;;;;;;;;4983031;28;20021;-68
2022/10/20 13:32:59;;;;;;;15.32;7.75;;;;;;;;;;4981046;28;20027;-68
2022/10/20 13:35:41;;;;;;;20.02;10.82;;;;;;;;;;4979891;28;20470;-67
2022/10/20 13:38:21;;;;;;;13.05;7.78;;;;;;;;;;4982015;28;20027;-67
2022/10/20 13:40:46;;;;;;;16.02;7.38;;;;;;;;;;4974419;28;20035;-67
2022/10/20 13:43:21;;;;;;;21.27;11.27;;;;;;;;;;4983310;28;20022;-67
2022/10/20 13:46:05;;;;;;;24.92;13.45;;;;;;;;;;4972329;28;20639;-67
2022/10/20 13:48:47;;;;;;;27.40;12.32;;;;;;;;;;4977668;28;20093;-67
2022/10/20 13:51:15;;;;;;;29.65;12.10;;;;;;;;;;4981310;28;20094;-69
2022/10/20 13:53:42;;;;;;;22.70;8.18;;;;;;;;;;4977535;28;20507;-66
2022/10/20 13:56:18;;;;;;;31.02;10.55;;;;;;;;;;4982146;28;20054;-67
2022/10/20 13:58:57;;;;;;;17.13;9.80;;;;;;;;;;4980826;28;20027;-67
2022/10/20 14:01:25;;;;;;;34.17;12.52;;;;;;;;;;4976836;28;20034;-65
2022/10/20 14:03:50;;;;;;;20.63;11.25;;;;;;;;;;4980001;28;20023;-66
2022/10/20 14:06:24;;;;;;;22.17;11.23;;;;;;;;;;4982576;28;20037;-67
2022/10/20 14:08:50;;;;;;;17.23;10.60;;;;;;;;;;4977632;28;20027;-67
2022/10/20 14:11:15;;;;;;;25.00;11.57;;;;;;;;;;4983377;28;20026;-66
2022/10/20 14:13:41;;;;;;;24.50;9.73;;;;;;;;;;4977854;28;20599;-67
2022/10/20 14:16:15;;;;;;;17.27;7.32;;;;;;;;;;4975764;28;20646;-67
2022/10/20 14:18:40;;;;;;;18.67;9.48;;;;;;;;;;4977171;28;20423;-67
2022/10/20 14:21:15;;;;;;;30.48;12.60;;;;;;;;;;4980195;28;20026;-65
2022/10/20 14:23:41;;;;;;;16.55;5.40;;;;;;;;;;4979044;28;20023;-67
2022/10/20 14:26:11;;;;;;;24.42;12.40;;;;;;;;;;4980336;28;20063;-67
2022/10/20 14:28:37;;;;;;;25.23;12.02;;;;;;;;;;4979513;28;20026;-67
2022/10/20 14:31:03;;;;;;;16.15;7.88;;;;;;;;;;4974578;28;20058;-69
2022/10/20 14:33:29;;;;;;;21.95;11.52;;;;;;;;;;4982413;28;20374;-66
2022/10/20 14:35:55;;;;;;;30.33;12.07;;;;;;;;;;4974529;28;20397;-67
2022/10/20 14:38:34;;;;;;;25.52;8.77;;;;;;;;;;4981695;28;20026;-67
2022/10/20 14:40:59;;;;;;;21.83;11.60;;;;;;;;;;4982181;28;20026;-67
2022/10/20 14:43:34;;;;;;;26.35;13.02;;;;;;;;;;4981807;28;20030;-67
2022/10/20 14:45:59;;;;;;;30.98;15.68;;;;;;;;;;4976471;28;20011;-68
2022/10/20 14:48:45;;;;;;;26.00;14.20;;;;;;;;;;4977965;28;20045;-67